Málaga

Airport
ICAO code: 
LEMG
Summary
ICAO Region: 
EUR
Territory: 
Location: 
Málaga,
Coordinates: 
Aerial View: 
36° 40' 29.64" N, 4° 29' 56.797" W
Metar
Observation
LEMG 181930Z 22002KT 9999 FEW030 10/06 Q1030 NOSIG
Station
Malaga / Aeropuerto
Date/Time
2022-01-18 19:30:00
Wind direction
220°
Wind speed
02 kts
Lowest cloud amount
few clouds
Temperature
10°C
Dew point
6°C
Humidity
76%
QNH
1030 hPa
Weather condition
n/a

Description

Málaga Airport, also known as Pablo Ruiz Picasso Airport, is an important airport for Spanish tourism as it is the main international airport for the Costa Del Sol. It is 8 km southwest of Málaga and 5 km north of Torremolinos.

Climatology

Dry-summer subtropical ”Mediterranean" climate (Köppen climate classification Csa) - characterized by hot, dry summers and mild winters. During the summer, subtropical high pressure cells dominate, making rainfall unlikely except for the occasional thunderstorm. In the winter, periodic storms bring rain.

Runways

Designator Length Width Surface Rops
12/30 2750 45 ASPHALT Yes/Yes
13/31 3200 45 ASP Yes/Yes
Airport map: 
Aerial View: 

SKYbrary Partners:

Safety knowledge contributed by: